METAR Data
IDs: Format: Raw Decoded Include TAF

Data at: 0816 UTC 07 Apr 2020

METAR for:KBWI (Baltimore-Washington, MD, US)
Text:KBWI 070754Z 00000KT 10SM BKN110 BKN250 11/01 A2996 RMK AO2 SLP145 T01060006
Temperature: 10.6°C ( 51°F)
Dewpoint: 0.6°C ( 33°F) [RH = 50%]
Pressure (altimeter):29.96 inches Hg (1014.6 mb) [Sea level pressure: 1014.5 mb]
Winds:calm
Visibility:10 or more sm (16+ km)
Ceiling:11000 feet AGL
Clouds: broken clouds at 11000 feet AGL, broken clouds at 25000 feet AGL